createdAt,value
2018-11-07T00:00:58.932Z,99.90
2018-11-07T00:03:26.965Z,99.90
2018-11-07T00:06:09.663Z,99.90
2018-11-07T00:08:37.562Z,99.90
2018-11-07T00:11:05.587Z,99.90
2018-11-07T00:13:33.707Z,99.90
2018-11-07T00:16:01.517Z,99.90
2018-11-07T00:18:29.440Z,99.90
2018-11-07T00:20:58.057Z,99.90
2018-11-07T00:23:25.914Z,99.90
2018-11-07T00:25:53.697Z,99.90
2018-11-07T00:28:21.577Z,99.90
2018-11-07T00:30:49.493Z,99.90
2018-11-07T00:33:17.438Z,99.90
2018-11-07T00:35:45.237Z,99.90
2018-11-07T00:38:13.694Z,99.90
2018-11-07T00:40:41.535Z,99.90
2018-11-07T00:43:09.338Z,99.90
2018-11-07T00:45:37.122Z,99.90
2018-11-07T00:48:04.901Z,99.90
2018-11-07T00:50:32.684Z,99.90
2018-11-07T00:53:00.442Z,99.90
2018-11-07T00:55:28.476Z,99.90
2018-11-07T00:57:57.259Z,99.90
2018-11-07T01:00:24.987Z,99.90
2018-11-07T01:02:52.733Z,99.90
2018-11-07T01:05:20.555Z,99.90
2018-11-07T01:07:48.313Z,99.90
2018-11-07T01:10:16.458Z,99.90
2018-11-07T01:12:44.530Z,99.90
2018-11-07T01:15:12.971Z,99.90
2018-11-07T01:17:40.894Z,99.90
2018-11-07T01:20:10.429Z,99.90
2018-11-07T01:22:38.749Z,99.90
2018-11-07T01:25:07.430Z,99.90
2018-11-07T01:27:35.718Z,99.90
2018-11-07T01:30:04.430Z,99.90
2018-11-07T01:32:32.959Z,99.90
2018-11-07T01:35:01.002Z,99.90
2018-11-07T01:37:28.899Z,99.90
2018-11-07T01:39:56.947Z,99.90
2018-11-07T01:42:25.041Z,99.90
2018-11-07T01:44:52.944Z,99.90
2018-11-07T01:47:21.108Z,99.90
2018-11-07T01:49:48.977Z,99.90
2018-11-07T01:52:16.873Z,99.90
2018-11-07T01:54:44.824Z,99.90
2018-11-07T01:57:12.663Z,99.90
2018-11-07T01:59:40.489Z,99.90
2018-11-07T02:02:08.238Z,99.90
2018-11-07T02:04:36.155Z,99.90
2018-11-07T02:07:04.496Z,99.90
2018-11-07T02:09:32.379Z,99.90
2018-11-07T02:12:00.305Z,99.90
2018-11-07T02:14:28.287Z,99.90
2018-11-07T02:16:56.134Z,99.90
2018-11-07T02:19:24.022Z,99.90
2018-11-07T02:21:52.574Z,99.90
2018-11-07T02:24:20.567Z,99.90
2018-11-07T02:26:48.503Z,99.90
2018-11-07T02:29:16.375Z,99.90
2018-11-07T02:31:45.714Z,99.90
2018-11-07T02:34:14.604Z,99.90
2018-11-07T02:36:42.788Z,99.90
2018-11-07T02:39:13.578Z,99.90
2018-11-07T02:41:42.163Z,99.90
2018-11-07T02:44:11.252Z,99.90
2018-11-07T02:46:39.684Z,99.90
2018-11-07T02:49:07.579Z,99.90
2018-11-07T02:51:36.486Z,99.90
2018-11-07T02:54:04.516Z,99.90
2018-11-07T02:56:32.993Z,99.90
2018-11-07T02:59:00.772Z,99.90
2018-11-07T03:01:29.265Z,99.90
2018-11-07T03:03:57.633Z,99.90
2018-11-07T03:06:25.577Z,99.90
2018-11-07T03:08:53.464Z,99.90
2018-11-07T03:11:21.651Z,99.90
2018-11-07T03:13:49.602Z,99.90
2018-11-07T03:16:18.028Z,99.90
2018-11-07T03:18:45.889Z,99.90
2018-11-07T03:21:13.746Z,99.90
2018-11-07T03:23:41.740Z,99.90
2018-11-07T03:26:09.694Z,99.90
2018-11-07T03:28:37.854Z,99.90
2018-11-07T03:31:05.630Z,99.90
2018-11-07T03:33:33.609Z,99.90
2018-11-07T03:36:01.449Z,99.90
2018-11-07T03:38:30.590Z,99.90
2018-11-07T03:40:58.938Z,99.90
2018-11-07T03:43:27.305Z,99.90
2018-11-07T03:45:57.419Z,99.90
2018-11-07T03:48:26.936Z,99.90
2018-11-07T03:50:55.069Z,99.90
2018-11-07T03:53:23.114Z,99.90
2018-11-07T03:55:51.741Z,99.90
2018-11-07T03:58:21.922Z,99.90
2018-11-07T04:00:49.842Z,99.90
2018-11-07T04:03:17.734Z,99.90
2018-11-07T04:05:45.818Z,99.90
2018-11-07T04:08:13.862Z,99.90
2018-11-07T04:10:42.209Z,99.90
2018-11-07T04:13:10.302Z,99.90
2018-11-07T04:15:38.284Z,99.90
2018-11-07T04:18:06.299Z,99.90
2018-11-07T04:20:34.625Z,99.90
2018-11-07T04:23:02.817Z,99.90
2018-11-07T04:25:30.791Z,99.90
2018-11-07T04:28:00.952Z,99.90
2018-11-07T04:30:28.732Z,99.90
2018-11-07T04:32:57.726Z,99.90
2018-11-07T04:35:26.091Z,99.90
2018-11-07T04:37:54.085Z,99.90
2018-11-07T04:40:21.893Z,99.90
2018-11-07T04:42:49.670Z,99.90
2018-11-07T04:45:17.499Z,99.90
2018-11-07T04:47:45.698Z,99.90
2018-11-07T04:50:13.621Z,99.90
2018-11-07T04:52:41.924Z,99.90
2018-11-07T04:55:10.216Z,99.90
2018-11-07T04:57:38.492Z,99.90
2018-11-07T05:00:08.854Z,99.90
2018-11-07T05:02:37.818Z,99.90
2018-11-07T05:05:05.813Z,99.90
2018-11-07T05:07:33.549Z,99.90
2018-11-07T05:10:01.750Z,99.90
2018-11-07T05:12:30.052Z,99.90
2018-11-07T05:14:58.151Z,99.90
2018-11-07T05:17:26.175Z,99.90
2018-11-07T05:19:54.087Z,99.90
2018-11-07T05:22:21.969Z,99.90
2018-11-07T05:24:51.281Z,99.90
2018-11-07T05:27:19.350Z,99.90
2018-11-07T05:29:47.675Z,99.90
2018-11-07T05:32:15.757Z,99.90
2018-11-07T05:34:43.826Z,99.90
2018-11-07T05:37:11.676Z,99.90
2018-11-07T05:39:39.842Z,99.90
2018-11-07T05:42:08.742Z,99.90
2018-11-07T05:44:36.694Z,99.90
2018-11-07T05:47:04.906Z,99.90
2018-11-07T05:49:32.919Z,99.90
2018-11-07T05:52:01.142Z,99.90
2018-11-07T05:54:29.138Z,99.90
2018-11-07T05:56:57.177Z,99.90
2018-11-07T05:59:25.078Z,99.90
2018-11-07T06:01:52.955Z,99.90
2018-11-07T06:04:20.834Z,99.90
2018-11-07T06:06:48.799Z,99.90
2018-11-07T06:09:17.213Z,99.90
2018-11-07T06:11:45.115Z,99.90
2018-11-07T06:14:12.938Z,99.90
2018-11-07T06:16:41.019Z,99.90
2018-11-07T06:19:09.086Z,99.90
2018-11-07T06:21:37.223Z,99.90
2018-11-07T06:24:05.334Z,99.90
2018-11-07T06:26:33.583Z,99.90
2018-11-07T06:29:01.609Z,99.90
2018-11-07T06:31:29.628Z,99.90
2018-11-07T06:33:57.458Z,99.90
2018-11-07T06:36:25.673Z,99.90
2018-11-07T06:38:53.829Z,99.90
2018-11-07T06:41:21.781Z,99.90
2018-11-07T06:43:49.819Z,99.90
2018-11-07T06:46:17.858Z,99.90
2018-11-07T06:48:45.786Z,99.90
2018-11-07T06:51:13.748Z,99.90
2018-11-07T06:53:41.775Z,99.90
2018-11-07T06:56:09.771Z,99.90
2018-11-07T06:58:37.847Z,99.90
2018-11-07T07:01:06.457Z,99.90
2018-11-07T07:03:34.461Z,99.90
2018-11-07T07:06:02.447Z,99.90
2018-11-07T07:08:30.498Z,99.90
2018-11-07T07:10:58.577Z,99.90
2018-11-07T07:13:27.701Z,99.90
2018-11-07T07:15:56.886Z,99.90
2018-11-07T07:18:24.858Z,99.90
2018-11-07T07:20:52.983Z,99.90
2018-11-07T07:23:21.331Z,99.90
2018-11-07T07:25:49.337Z,99.90
2018-11-07T07:28:17.348Z,99.90
2018-11-07T07:30:45.325Z,99.90
2018-11-07T07:33:13.733Z,99.90
2018-11-07T07:35:41.921Z,99.90
2018-11-07T07:38:09.845Z,99.90
2018-11-07T07:40:37.771Z,99.90
2018-11-07T07:43:05.988Z,99.90
2018-11-07T07:45:34.100Z,99.90
2018-11-07T07:48:02.315Z,99.90
2018-11-07T07:50:30.593Z,99.90
2018-11-07T07:52:59.002Z,99.90
2018-11-07T07:55:26.783Z,99.90
2018-11-07T07:57:57.051Z,99.90
2018-11-07T08:00:25.321Z,99.90
2018-11-07T08:02:54.096Z,99.90
2018-11-07T08:05:22.260Z,99.90
2018-11-07T08:07:50.538Z,99.90
2018-11-07T08:10:20.178Z,99.90
2018-11-07T08:12:48.723Z,99.90
2018-11-07T08:15:17.393Z,99.90
2018-11-07T08:17:45.659Z,99.90
2018-11-07T08:20:15.153Z,99.90
2018-11-07T08:22:44.202Z,99.90
2018-11-07T08:25:12.261Z,99.90
2018-11-07T08:27:40.313Z,99.90
2018-11-07T08:30:12.565Z,99.90
2018-11-07T08:32:42.058Z,99.90
2018-11-07T08:35:11.224Z,99.90
2018-11-07T08:37:39.505Z,99.90
2018-11-07T08:40:10.338Z,99.90
2018-11-07T08:42:39.205Z,99.90
2018-11-07T08:45:08.093Z,99.90
2018-11-07T08:47:36.354Z,99.90
2018-11-07T08:50:06.278Z,99.90
2018-11-07T08:52:35.139Z,99.90
2018-11-07T08:55:03.157Z,99.90
2018-11-07T08:57:31.283Z,99.90
2018-11-07T08:59:59.663Z,99.90
2018-11-07T09:02:28.080Z,99.90
2018-11-07T09:04:56.104Z,99.90
2018-11-07T09:07:24.063Z,99.90
2018-11-07T09:09:52.029Z,99.90
2018-11-07T09:12:20.132Z,99.90
2018-11-07T09:14:48.139Z,99.90
2018-11-07T09:17:16.268Z,99.90
2018-11-07T09:19:44.189Z,99.90
2018-11-07T09:22:12.639Z,99.90
2018-11-07T09:24:40.792Z,99.90
2018-11-07T09:27:09.044Z,99.90
2018-11-07T09:29:37.702Z,99.90
2018-11-07T09:32:06.209Z,99.90
2018-11-07T09:34:34.390Z,99.90
2018-11-07T09:37:02.280Z,99.90
2018-11-07T09:39:30.389Z,99.90
2018-11-07T09:41:58.525Z,99.90
2018-11-07T09:44:26.567Z,99.90
2018-11-07T09:46:54.894Z,99.90
2018-11-07T09:49:23.144Z,99.90
2018-11-07T09:51:51.196Z,99.90
2018-11-07T09:54:19.214Z,99.90
2018-11-07T09:56:47.197Z,99.90
2018-11-07T09:59:15.253Z,99.90
2018-11-07T10:01:43.199Z,99.90
2018-11-07T10:04:11.225Z,99.90
2018-11-07T10:06:39.140Z,99.90
2018-11-07T10:09:08.626Z,99.90
2018-11-07T10:11:37.040Z,99.90
2018-11-07T10:14:05.956Z,99.90
2018-11-07T10:16:35.205Z,99.90
2018-11-07T10:19:03.155Z,99.90
2018-11-07T10:21:31.807Z,99.90
2018-11-07T10:23:59.614Z,99.90
2018-11-07T10:26:27.705Z,99.90
2018-11-07T10:28:57.180Z,99.90
2018-11-07T10:31:24.930Z,99.90
2018-11-07T10:33:52.958Z,99.90
2018-11-07T10:36:21.027Z,99.30
2018-11-07T10:38:49.072Z,99.90
2018-11-07T10:41:16.985Z,99.90
2018-11-07T10:43:45.117Z,99.90
2018-11-07T10:46:13.039Z,99.80
2018-11-07T10:48:41.050Z,99.90
2018-11-07T10:51:09.073Z,97.80
2018-11-07T10:53:37.700Z,98.80
2018-11-07T10:56:06.052Z,99.60
2018-11-07T10:58:34.175Z,98.30
2018-11-07T11:01:07.871Z,98.40
2018-11-07T11:06:10.706Z,95.60
2018-11-07T11:08:38.554Z,92.70
2018-11-07T11:11:06.468Z,92.10
2018-11-07T11:13:34.768Z,92.50
2018-11-07T11:16:02.930Z,93.10
2018-11-07T11:18:30.915Z,92.60
2018-11-07T11:20:59.090Z,93.30
2018-11-07T11:23:27.497Z,95.20
2018-11-07T11:25:55.561Z,94.30
2018-11-07T11:28:23.954Z,94.90
2018-11-07T11:30:51.811Z,95.40
2018-11-07T11:33:20.012Z,94.80
2018-11-07T11:35:48.035Z,95.00
2018-11-07T11:38:16.221Z,94.70
2018-11-07T11:40:44.458Z,93.90
2018-11-07T11:43:12.252Z,94.20
2018-11-07T11:45:40.231Z,93.70
2018-11-07T11:48:08.102Z,93.70
2018-11-07T11:50:36.026Z,94.00
2018-11-07T11:53:04.378Z,93.80
2018-11-07T11:55:32.447Z,93.20
2018-11-07T11:58:01.554Z,92.70
2018-11-07T12:00:29.600Z,93.50
2018-11-07T12:02:57.477Z,93.80
2018-11-07T12:05:25.586Z,92.90
2018-11-07T12:07:53.833Z,92.80
2018-11-07T12:10:24.889Z,93.80
2018-11-07T12:12:55.775Z,94.20
2018-11-07T12:15:24.976Z,95.50
2018-11-07T12:17:53.487Z,95.10
2018-11-07T12:20:21.753Z,95.00
2018-11-07T12:22:49.933Z,94.50
2018-11-07T12:25:18.578Z,94.60
2018-11-07T12:27:46.415Z,94.50
2018-11-07T12:30:20.337Z,93.80
2018-11-07T12:32:49.610Z,93.60
2018-11-07T12:35:18.175Z,94.20
2018-11-07T12:37:46.676Z,93.70
2018-11-07T12:40:14.960Z,93.30
2018-11-07T12:42:43.450Z,93.50
2018-11-07T12:45:12.622Z,92.80
2018-11-07T12:47:41.121Z,92.60
2018-11-07T12:50:13.327Z,92.80
2018-11-07T12:52:41.892Z,92.80
2018-11-07T12:55:11.149Z,93.30
2018-11-07T12:57:39.352Z,94.00
2018-11-07T13:00:10.875Z,94.10
2018-11-07T13:02:39.744Z,94.30
2018-11-07T13:05:08.800Z,93.80
2018-11-07T13:07:37.115Z,94.90
2018-11-07T13:10:08.533Z,93.70
2018-11-07T13:12:36.805Z,93.70
2018-11-07T13:15:06.407Z,93.60
2018-11-07T13:17:34.619Z,93.70
2018-11-07T13:20:02.810Z,93.60
2018-11-07T13:22:31.364Z,93.80
2018-11-07T13:24:59.450Z,93.90
2018-11-07T13:27:27.422Z,93.70
2018-11-07T13:29:55.652Z,93.80
2018-11-07T13:32:24.851Z,93.70
2018-11-07T13:34:53.210Z,93.60
2018-11-07T13:37:21.515Z,94.20
2018-11-07T13:39:50.484Z,95.20
2018-11-07T13:42:18.552Z,95.50
2018-11-07T13:44:46.750Z,96.10
2018-11-07T13:47:15.127Z,95.80
2018-11-07T13:49:43.278Z,96.50
2018-11-07T13:52:11.218Z,97.00
2018-11-07T13:54:39.439Z,97.00
2018-11-07T13:57:07.396Z,96.80
2018-11-07T13:59:35.394Z,97.30
2018-11-07T14:02:03.419Z,98.10
2018-11-07T14:04:31.405Z,98.30
2018-11-07T14:06:59.631Z,98.10
2018-11-07T14:09:27.509Z,97.60
2018-11-07T14:11:55.450Z,97.50
2018-11-07T14:14:23.450Z,97.40
2018-11-07T14:16:51.696Z,97.70
2018-11-07T14:19:20.130Z,98.60
2018-11-07T14:21:48.142Z,98.10
2018-11-07T14:24:16.727Z,97.70
2018-11-07T14:26:44.989Z,98.50
2018-11-07T14:29:14.098Z,98.70
2018-11-07T14:31:42.767Z,97.90
2018-11-07T14:34:10.876Z,97.90
2018-11-07T14:36:39.150Z,98.30
2018-11-07T14:39:08.168Z,98.50
2018-11-07T14:41:36.848Z,98.90
2018-11-07T14:44:05.132Z,99.20
2018-11-07T14:46:33.491Z,99.60
2018-11-07T14:49:01.601Z,99.60
2018-11-07T14:51:29.641Z,99.90
2018-11-07T14:53:58.264Z,99.90
2018-11-07T14:56:26.887Z,99.90
2018-11-07T14:58:54.994Z,99.90
2018-11-07T15:01:23.457Z,99.90
2018-11-07T15:03:51.820Z,99.90
2018-11-07T15:06:20.312Z,99.90
2018-11-07T15:08:48.604Z,99.90
2018-11-07T15:11:16.874Z,99.90
2018-11-07T15:13:45.120Z,99.90
2018-11-07T15:16:13.290Z,99.90
2018-11-07T15:18:41.708Z,99.90
2018-11-07T15:21:09.680Z,99.90
2018-11-07T15:23:37.729Z,99.90
2018-11-07T15:26:05.934Z,99.90
2018-11-07T15:28:34.983Z,99.90
2018-11-07T15:31:03.086Z,99.90
2018-11-07T15:33:31.299Z,99.90
2018-11-07T15:35:59.579Z,99.90
2018-11-07T15:38:27.576Z,99.90
2018-11-07T15:40:56.095Z,99.90
2018-11-07T15:43:24.335Z,99.90
2018-11-07T15:45:52.380Z,99.90
2018-11-07T15:48:20.324Z,99.90
2018-11-07T15:50:53.959Z,99.90
2018-11-07T15:53:22.054Z,99.90
2018-11-07T15:55:50.351Z,99.90
2018-11-07T15:58:18.476Z,99.90
2018-11-07T16:00:46.508Z,99.90
2018-11-07T16:03:19.123Z,99.90
2018-11-07T16:05:47.379Z,99.90
2018-11-07T16:08:17.214Z,99.90
2018-11-07T16:10:45.470Z,99.90
2018-11-07T16:13:13.962Z,99.90
2018-11-07T16:15:42.459Z,99.90
2018-11-07T16:18:10.448Z,99.90
2018-11-07T16:20:38.831Z,99.90
2018-11-07T16:23:06.778Z,99.90
2018-11-07T16:25:34.944Z,99.90
2018-11-07T16:28:02.914Z,99.90
2018-11-07T16:30:30.984Z,99.90
2018-11-07T16:32:59.013Z,99.90
2018-11-07T16:35:27.205Z,99.90
2018-11-07T16:37:55.833Z,99.90
2018-11-07T16:40:24.007Z,99.90
2018-11-07T16:42:52.106Z,99.90
2018-11-07T16:45:20.096Z,99.90
2018-11-07T16:47:48.129Z,99.90
2018-11-07T16:50:16.780Z,99.90
2018-11-07T16:52:44.763Z,99.90
2018-11-07T16:55:12.942Z,99.90
2018-11-07T16:57:41.632Z,99.90
2018-11-07T17:00:12.770Z,99.90
2018-11-07T17:02:43.158Z,99.90
2018-11-07T17:05:12.011Z,99.90
2018-11-07T17:07:40.385Z,99.90
2018-11-07T17:10:09.097Z,99.90
2018-11-07T17:12:37.965Z,99.90
2018-11-07T17:15:06.390Z,99.90
2018-11-07T17:17:34.465Z,99.90
2018-11-07T17:20:02.948Z,99.90
2018-11-07T17:22:30.873Z,99.90
2018-11-07T17:24:59.212Z,99.90
2018-11-07T17:27:27.325Z,99.90
2018-11-07T17:29:55.335Z,99.90
2018-11-07T17:32:23.420Z,99.90
2018-11-07T17:34:51.583Z,99.90
2018-11-07T17:37:19.780Z,99.90
2018-11-07T17:39:47.678Z,99.90
2018-11-07T17:42:15.856Z,99.90
2018-11-07T17:44:43.809Z,99.90
2018-11-07T17:47:11.776Z,99.90
2018-11-07T17:49:39.716Z,99.90
2018-11-07T17:52:07.784Z,99.90
2018-11-07T17:54:36.085Z,99.90
2018-11-07T17:57:04.619Z,99.90
2018-11-07T17:59:32.926Z,99.90
2018-11-07T18:02:01.571Z,99.90
2018-11-07T18:04:30.388Z,99.90
2018-11-07T18:06:58.707Z,99.90
2018-11-07T18:09:27.685Z,99.90
2018-11-07T18:11:56.382Z,99.90
2018-11-07T18:14:25.391Z,99.90
2018-11-07T18:16:53.424Z,99.90
2018-11-07T18:19:21.513Z,99.90
2018-11-07T18:21:49.600Z,99.90
2018-11-07T18:24:17.608Z,99.90
2018-11-07T18:26:45.726Z,99.90
2018-11-07T18:29:29.238Z,99.90
2018-11-07T18:31:57.492Z,99.90
2018-11-07T18:34:25.527Z,99.90
2018-11-07T18:36:53.621Z,99.90
2018-11-07T18:39:22.649Z,99.90
2018-11-07T18:41:50.876Z,99.90
2018-11-07T18:44:19.054Z,99.90
2018-11-07T18:46:47.147Z,99.90
2018-11-07T18:49:15.353Z,99.90
2018-11-07T18:51:43.333Z,99.90
2018-11-07T18:54:11.428Z,99.90
2018-11-07T18:56:39.853Z,99.90
2018-11-07T18:59:08.199Z,99.90
2018-11-07T19:01:37.079Z,99.90
2018-11-07T19:04:05.194Z,99.90
2018-11-07T19:06:34.870Z,99.90
2018-11-07T19:09:03.225Z,99.90
2018-11-07T19:11:31.455Z,99.90
2018-11-07T19:14:01.110Z,99.90
2018-11-07T19:16:29.445Z,99.90
2018-11-07T19:18:57.563Z,99.90
2018-11-07T19:21:26.179Z,99.90
2018-11-07T19:23:54.531Z,99.90
2018-11-07T19:26:23.141Z,99.90
2018-11-07T19:28:51.937Z,99.90
2018-11-07T19:31:20.640Z,99.90
2018-11-07T19:33:50.487Z,99.90
2018-11-07T19:36:18.473Z,99.90
2018-11-07T19:38:46.582Z,99.90
2018-11-07T19:41:14.562Z,99.90
2018-11-07T19:43:42.780Z,99.90
2018-11-07T19:46:12.316Z,99.90
2018-11-07T19:48:40.789Z,99.90
2018-11-07T19:51:09.130Z,99.90
2018-11-07T19:53:37.346Z,99.90
2018-11-07T19:56:06.471Z,99.90
2018-11-07T19:58:36.142Z,99.90
2018-11-07T20:01:04.994Z,99.90
2018-11-07T20:03:33.159Z,99.90
2018-11-07T20:06:01.822Z,99.90
2018-11-07T20:08:30.191Z,99.90
2018-11-07T20:10:58.861Z,99.90
2018-11-07T20:13:28.045Z,99.90
2018-11-07T20:15:57.098Z,99.90
2018-11-07T20:18:25.336Z,99.90
2018-11-07T20:20:55.051Z,99.90
2018-11-07T20:23:23.201Z,99.90
2018-11-07T20:25:51.735Z,99.90
2018-11-07T20:28:21.776Z,99.90
2018-11-07T20:30:50.031Z,99.90
2018-11-07T20:33:17.808Z,99.90
2018-11-07T20:35:45.987Z,99.90
2018-11-07T20:38:17.264Z,99.90
2018-11-07T20:40:47.596Z,99.90
2018-11-07T20:43:16.572Z,99.90
2018-11-07T20:45:44.635Z,99.90
2018-11-07T20:48:13.101Z,99.90
2018-11-07T20:50:42.666Z,99.90
2018-11-07T20:53:11.162Z,99.90
2018-11-07T20:55:42.388Z,99.90
2018-11-07T20:58:10.898Z,99.90
2018-11-07T21:00:38.779Z,99.90
2018-11-07T21:03:06.830Z,99.90
2018-11-07T21:05:35.916Z,99.90
2018-11-07T21:08:04.667Z,99.90
2018-11-07T21:10:33.567Z,99.90
2018-11-07T21:13:02.757Z,99.90
2018-11-07T21:15:31.212Z,99.90
2018-11-07T21:18:01.179Z,99.90
2018-11-07T21:20:30.130Z,99.90
2018-11-07T21:22:58.169Z,99.90
2018-11-07T21:25:27.692Z,99.90
2018-11-07T21:27:57.843Z,99.90
2018-11-07T21:30:27.142Z,99.90
2018-11-07T21:32:55.444Z,99.90
2018-11-07T21:35:23.605Z,99.90
2018-11-07T21:37:52.595Z,99.90
2018-11-07T21:40:22.526Z,99.90
2018-11-07T21:42:50.585Z,99.90
2018-11-07T21:45:19.310Z,99.90
2018-11-07T21:47:47.220Z,99.90
2018-11-07T21:50:16.399Z,99.90
2018-11-07T21:52:44.699Z,99.90
2018-11-07T21:55:12.593Z,99.90
2018-11-07T21:57:40.750Z,99.90
2018-11-07T22:00:13.228Z,99.90
2018-11-07T22:02:41.532Z,99.90
2018-11-07T22:05:10.111Z,99.90
2018-11-07T22:07:38.492Z,99.90
2018-11-07T22:10:07.753Z,99.90
2018-11-07T22:12:35.754Z,99.90
2018-11-07T22:15:04.067Z,99.90
2018-11-07T22:17:32.407Z,99.90
2018-11-07T22:20:00.718Z,99.90
2018-11-07T22:22:29.230Z,99.90
2018-11-07T22:24:57.216Z,99.90
2018-11-07T22:27:25.164Z,99.90
2018-11-07T22:29:53.224Z,99.90
2018-11-07T22:32:21.127Z,99.90
2018-11-07T22:34:49.905Z,99.90
2018-11-07T22:37:18.304Z,99.90
2018-11-07T22:39:47.393Z,99.90
2018-11-07T22:42:15.750Z,99.90
2018-11-07T22:44:43.761Z,99.90
2018-11-07T22:47:11.657Z,99.90
2018-11-07T22:49:39.547Z,99.90
2018-11-07T22:52:07.470Z,99.90
2018-11-07T22:54:35.548Z,99.90
2018-11-07T22:57:04.110Z,99.90
2018-11-07T22:59:32.187Z,99.90
2018-11-07T23:02:00.040Z,99.90
2018-11-07T23:04:27.900Z,99.90
2018-11-07T23:06:55.935Z,99.90
2018-11-07T23:09:24.068Z,99.90
2018-11-07T23:11:51.983Z,99.90
2018-11-07T23:14:20.019Z,99.90
2018-11-07T23:16:48.205Z,99.90
2018-11-07T23:19:16.384Z,99.90
2018-11-07T23:21:44.480Z,99.90
2018-11-07T23:24:12.553Z,99.90
2018-11-07T23:26:40.495Z,99.90
2018-11-07T23:29:08.404Z,99.90
2018-11-07T23:31:37.264Z,99.90
2018-11-07T23:34:05.388Z,99.90
2018-11-07T23:36:34.245Z,99.90
2018-11-07T23:39:02.773Z,99.90
2018-11-07T23:41:30.660Z,99.90
2018-11-07T23:43:58.687Z,99.90
2018-11-07T23:46:26.717Z,99.90
2018-11-07T23:48:54.891Z,99.90
2018-11-07T23:51:23.063Z,99.90
2018-11-07T23:53:51.024Z,99.90
2018-11-07T23:56:19.300Z,99.90
2018-11-07T23:58:47.311Z,99.90
